Flight Track Log - Related Links

Times and Time Zones

All times are in EST time to prevent confusion due to time zone crossing. See the N700HL flight status page for this flight to view local times or setup timezone preferences in your user account.

Time Position Orientation Groundspeed Altitude Reporting Facility
EST Latitude Longitude Course Direction KTS MPH feet Rate Location/Type
Mon 01:49:31 PM 30.7000 -96.3236 136° Southeast 163 188 1,000  Level Houston Center
Mon 01:50:20 PM 30.6800 -96.3011 222° Southwest 118 136 2,600 1,767 Climbing Houston Center
Mon 01:51:40 PM 30.6539 -96.3289 254° West 98 113 4,800 1,543 Climbing Houston Center
Mon 01:52:40 PM 30.6444 -96.3669 252° West 124 143 6,200 1,600 Climbing Houston Center
Mon 01:53:40 PM 30.6325 -96.4097 249° West 143 165 8,000 1,850 Climbing Houston Center
Mon 01:54:40 PM 30.6183 -96.4525 245° Southwest 148 170 9,900 1,850 Climbing Houston Center
Mon 01:55:40 PM 30.6022 -96.4928 253° West 148 170 11,700 1,050 Climbing Houston Center
Mon 01:56:40 PM 30.5878 -96.5475 257° West 165 190 12,000 150 Climbing Houston Center
Mon 01:57:40 PM 30.5725 -96.6217 257° West 196 226 12,000  Level Houston Center
Mon 01:58:40 PM 30.5575 -96.6956 257° West 233 268 12,000  Level Houston Center
Mon 01:59:40 PM 30.5419 -96.7719 255° West 245 282 12,000  Level Houston Center
Mon 02:00:40 PM 30.5244 -96.8458 258° West 240 276 12,000  Level Houston Center
Mon 02:01:40 PM 30.5114 -96.9150 257° West 234 269 12,000  Level Houston Center
Mon 02:02:40 PM 30.4961 -96.9889 253° West 234 269 12,000  Level Houston Center
Mon 02:03:40 PM 30.4789 -97.0553 255° West 230 265 12,000  Level Houston Center
Mon 02:04:40 PM 30.4636 -97.1194 228° Southwest 230 265 12,000 -650 Level Houston Center
Mon 02:05:40 PM 30.4175 -97.1797 229° Southwest 230 265 10,700 -1,050 Descending Houston Center
Mon 02:06:40 PM 30.3711 -97.2419 228° Southwest 257 296 9,900 -850 Descending Houston Center
Mon 02:07:40 PM 30.3247 -97.3019 230° Southwest 252 290 9,000 -950 Descending Houston Center
Mon 02:08:40 PM 30.2806 -97.3619 229° Southwest 252 290 8,000 -950 Descending Houston Center
Mon 02:09:40 PM 30.2297 -97.4289 227° Southwest 252 290 7,100 -900 Descending Houston Center
Mon 02:10:40 PM 30.1836 -97.4864 231° Southwest 252 290 6,200 -550 Descending Houston Center
Mon 02:11:40 PM 30.1414 -97.5464 227° Southwest 252 290 6,000 -100 Descending Houston Center
Mon 02:12:40 PM 30.0994 -97.5992 230° Southwest 247 284 6,000  Level Houston Center
Mon 02:13:40 PM 30.0617 -97.6519 229° Southwest 242 278 6,000  Level Houston Center
Mon 02:15:09 PM 29.9972 -97.7369 226° Southwest 225 259 6,000  Level Houston Center
Mon 02:16:10 PM 29.9531 -97.7894 230° Southwest 227 261 6,000  Level Houston Center
Mon 02:17:11 PM 29.9089 -97.8492 238° Southwest 226 260 6,000  Level Houston Center
Mon 02:18:11 PM 29.8767 -97.9094 247° West 228 262 6,000  Level Houston Center
Mon 02:19:12 PM 29.8506 -97.9794 239° Southwest 230 265 6,000  Level Houston Center
Mon 02:20:13 PM 29.8183 -98.0422 247° West 230 265 6,000  Level Houston Center
Mon 02:21:08 PM 29.7947 -98.1053 244° Southwest 230 265 6,000  Level Houston Center
Mon 02:22:03 PM 29.7689 -98.1658 243° Southwest 229 264 6,000  Level Houston Center
Mon 02:23:04 PM 29.7406 -98.2308 244° Southwest 228 262 6,000 -397 Level Houston Center
Mon 02:24:04 PM 29.7125 -98.2961 251° West 234 269 5,200 -496 Descending Houston Center
Mon 02:25:05 PM 29.6925 -98.3642 278° West 222 255 5,000 -98 Descending Houston Center
Mon 02:26:06 PM 29.7014 -98.4364 280° West 219 252 5,000 -443 Level Houston Center
Mon 02:27:07 PM 29.7122 -98.5086 250° West 231 266 4,100 -645 Descending Houston Center
Mon 02:28:07 PM 29.6925 -98.5694 234° Southwest 204 235 3,700 -595 Descending Houston Center
Mon 02:29:08 PM 29.6631 -98.6153 173° South 174 200 2,900 -439 Descending Houston Center
Mon 02:30:10 PM 29.6319 -98.6108 128° Southeast 168 193 2,800 -49 Descending Houston Center
Mon 02:31:10 PM 29.6047 -98.5708 134° Southeast 135 155 2,800 -261 Level Houston Center
Mon 02:32:05 PM 29.5792 -98.5406 134° Southeast 144 166 2,300 -545 Descending Houston Center

Login

Don't have an account? Register now (free) for customized features, flight alerts, and more!